sensor_id;sensor_type;location;lat;lon;timestamp;pressure;altitude;pressure_sealevel;temperature
15544;BMP180;7873;52.230;12.856;2024-02-21T00:00:21;101304.94;;;26.61
15544;BMP180;7873;52.230;12.856;2024-02-21T00:02:48;101303.44;;;26.58
15544;BMP180;7873;52.230;12.856;2024-02-21T00:05:14;101296.72;;;26.54
15544;BMP180;7873;52.230;12.856;2024-02-21T00:07:41;101295.59;;;26.49
15544;BMP180;7873;52.230;12.856;2024-02-21T00:10:08;101295.09;;;26.45
15544;BMP180;7873;52.230;12.856;2024-02-21T00:12:36;101293.78;;;26.41
15544;BMP180;7873;52.230;12.856;2024-02-21T00:15:03;101292.13;;;26.40
15544;BMP180;7873;52.230;12.856;2024-02-21T00:17:29;101289.41;;;26.40
15544;BMP180;7873;52.230;12.856;2024-02-21T00:19:56;101295.19;;;26.37
15544;BMP180;7873;52.230;12.856;2024-02-21T00:22:22;101290.00;;;26.36
15544;BMP180;7873;52.230;12.856;2024-02-21T00:24:50;101285.63;;;26.35
15544;BMP180;7873;52.230;12.856;2024-02-21T00:27:16;101294.75;;;26.34
15544;BMP180;7873;52.230;12.856;2024-02-21T00:29:44;101285.97;;;26.32
15544;BMP180;7873;52.230;12.856;2024-02-21T00:32:10;101279.91;;;26.30
15544;BMP180;7873;52.230;12.856;2024-02-21T00:34:37;101280.28;;;26.27
15544;BMP180;7873;52.230;12.856;2024-02-21T00:37:03;101276.28;;;26.23
15544;BMP180;7873;52.230;12.856;2024-02-21T00:39:30;101276.47;;;26.21
15544;BMP180;7873;52.230;12.856;2024-02-21T00:41:56;101277.03;;;26.17
15544;BMP180;7873;52.230;12.856;2024-02-21T00:44:23;101268.28;;;26.15
15544;BMP180;7873;52.230;12.856;2024-02-21T00:46:50;101275.91;;;26.11
15544;BMP180;7873;52.230;12.856;2024-02-21T00:49:18;101269.00;;;26.09
15544;BMP180;7873;52.230;12.856;2024-02-21T00:51:44;101266.50;;;26.07
15544;BMP180;7873;52.230;12.856;2024-02-21T00:54:11;101265.19;;;26.03
15544;BMP180;7873;52.230;12.856;2024-02-21T00:56:37;101265.19;;;26.03
15544;BMP180;7873;52.230;12.856;2024-02-21T00:59:03;101265.56;;;26.00
15544;BMP180;7873;52.230;12.856;2024-02-21T01:01:30;101262.19;;;25.98
15544;BMP180;7873;52.230;12.856;2024-02-21T01:03:58;101260.88;;;25.94
15544;BMP180;7873;52.230;12.856;2024-02-21T01:06:24;101258.56;;;25.91
15544;BMP180;7873;52.230;12.856;2024-02-21T01:08:51;101262.09;;;25.92
15544;BMP180;7873;52.230;12.856;2024-02-21T01:11:17;101253.34;;;25.90
15544;BMP180;7873;52.230;12.856;2024-02-21T01:13:44;101254.38;;;25.89
15544;BMP180;7873;52.230;12.856;2024-02-21T01:16:10;101251.84;;;25.87
15544;BMP180;7873;52.230;12.856;2024-02-21T01:18:37;101257.63;;;25.84
15544;BMP180;7873;52.230;12.856;2024-02-21T01:21:06;101251.69;;;25.81
15544;BMP180;7873;52.230;12.856;2024-02-21T01:23:33;101251.91;;;25.79
15544;BMP180;7873;52.230;12.856;2024-02-21T01:25:59;101249.56;;;25.76
15544;BMP180;7873;52.230;12.856;2024-02-21T01:28:26;101247.88;;;25.75
15544;BMP180;7873;52.230;12.856;2024-02-21T01:30:52;101246.56;;;25.71
15544;BMP180;7873;52.230;12.856;2024-02-21T01:33:19;101254.66;;;25.71
15544;BMP180;7873;52.230;12.856;2024-02-21T01:35:45;101254.84;;;25.70
15544;BMP180;7873;52.230;12.856;2024-02-21T01:38:13;101260.63;;;25.67
15544;BMP180;7873;52.230;12.856;2024-02-21T01:40:40;101249.81;;;25.67
15544;BMP180;7873;52.230;12.856;2024-02-21T01:43:15;101244.75;;;25.64
15544;BMP180;7873;52.230;12.856;2024-02-21T01:45:42;101240.38;;;25.63
15544;BMP180;7873;52.230;12.856;2024-02-21T01:48:08;101240.75;;;25.60
15544;BMP180;7873;52.230;12.856;2024-02-21T01:50:35;101240.97;;;25.58
15544;BMP180;7873;52.230;12.856;2024-02-21T01:53:03;101236.75;;;25.56
15544;BMP180;7873;52.230;12.856;2024-02-21T01:55:31;101235.72;;;25.57
15544;BMP180;7873;52.230;12.856;2024-02-21T01:57:57;101241.50;;;25.54
15544;BMP180;7873;52.230;12.856;2024-02-21T02:00:24;101224.66;;;25.52
15544;BMP180;7873;52.230;12.856;2024-02-21T02:02:50;101223.81;;;25.52
15544;BMP180;7873;52.230;12.856;2024-02-21T02:05:17;101220.44;;;25.50
15544;BMP180;7873;52.230;12.856;2024-02-21T02:07:46;101217.28;;;25.46
15544;BMP180;7873;52.230;12.856;2024-02-21T02:10:13;101211.41;;;25.43
15544;BMP180;7873;52.230;12.856;2024-02-21T02:12:40;101215.31;;;25.40
15544;BMP180;7873;52.230;12.856;2024-02-21T02:15:07;101212.16;;;25.37
15544;BMP180;7873;52.230;12.856;2024-02-21T02:17:34;101212.31;;;25.35
15544;BMP180;7873;52.230;12.856;2024-02-21T02:20:01;101213.53;;;25.33
15544;BMP180;7873;52.230;12.856;2024-02-21T02:22:28;101213.69;;;25.31
15544;BMP180;7873;52.230;12.856;2024-02-21T02:24:58;101205.63;;;25.31
15544;BMP180;7873;52.230;12.856;2024-02-21T02:27:25;101203.94;;;25.30
15544;BMP180;7873;52.230;12.856;2024-02-21T02:29:51;101200.41;;;25.30
15544;BMP180;7873;52.230;12.856;2024-02-21T02:32:18;101202.78;;;25.25
15544;BMP180;7873;52.230;12.856;2024-02-21T02:34:45;101206.34;;;25.25
15544;BMP180;7873;52.230;12.856;2024-02-21T02:37:11;101199.44;;;25.23
15544;BMP180;7873;52.230;12.856;2024-02-21T02:39:38;101195.25;;;25.20
15544;BMP180;7873;52.230;12.856;2024-02-21T02:42:06;101191.72;;;25.20
15544;BMP180;7873;52.230;12.856;2024-02-21T02:44:32;101190.19;;;25.17
15544;BMP180;7873;52.230;12.856;2024-02-21T02:46:58;101183.97;;;25.17
15544;BMP180;7873;52.230;12.856;2024-02-21T02:49:25;101182.28;;;25.16
15544;BMP180;7873;52.230;12.856;2024-02-21T02:51:51;101177.06;;;25.14
15544;BMP180;7873;52.230;12.856;2024-02-21T02:54:18;101180.13;;;25.11
15544;BMP180;7873;52.230;12.856;2024-02-21T02:56:44;101171.03;;;25.12
15544;BMP180;7873;52.230;12.856;2024-02-21T02:59:12;101166.00;;;25.09
15544;BMP180;7873;52.230;12.856;2024-02-21T03:01:39;101167.00;;;25.08
15544;BMP180;7873;52.230;12.856;2024-02-21T03:04:05;101170.91;;;25.06
15544;BMP180;7873;52.230;12.856;2024-02-21T03:06:31;101166.72;;;25.03
15544;BMP180;7873;52.230;12.856;2024-02-21T03:08:58;101157.97;;;25.01
15544;BMP180;7873;52.230;12.856;2024-02-21T03:11:25;101158.16;;;25.00
15544;BMP180;7873;52.230;12.856;2024-02-21T03:13:54;101157.31;;;24.99
15544;BMP180;7873;52.230;12.856;2024-02-21T03:16:23;101160.19;;;24.98
15544;BMP180;7873;52.230;12.856;2024-02-21T03:18:49;101153.31;;;24.95
15544;BMP180;7873;52.230;12.856;2024-02-21T03:21:15;101151.81;;;24.93
15544;BMP180;7873;52.230;12.856;2024-02-21T03:23:42;101143.06;;;24.91
15544;BMP180;7873;52.230;12.856;2024-02-21T03:26:08;101147.59;;;24.90
15544;BMP180;7873;52.230;12.856;2024-02-21T03:28:35;101144.25;;;24.88
15544;BMP180;7873;52.230;12.856;2024-02-21T03:31:01;101138.03;;;24.88
15544;BMP180;7873;52.230;12.856;2024-02-21T03:33:29;101140.25;;;24.84
15544;BMP180;7873;52.230;12.856;2024-02-21T03:35:56;101132.00;;;24.86
15544;BMP180;7873;52.230;12.856;2024-02-21T03:38:22;101126.94;;;24.83
15544;BMP180;7873;52.230;12.856;2024-02-21T03:40:49;101127.13;;;24.81
15544;BMP180;7873;52.230;12.856;2024-02-21T03:43:15;101130.84;;;24.80
15544;BMP180;7873;52.230;12.856;2024-02-21T03:45:42;101121.91;;;24.80
15544;BMP180;7873;52.230;12.856;2024-02-21T03:48:08;101115.88;;;24.78
15544;BMP180;7873;52.230;12.856;2024-02-21T03:50:36;101109.81;;;24.76
15544;BMP180;7873;52.230;12.856;2024-02-21T03:53:03;101109.00;;;24.75
15544;BMP180;7873;52.230;12.856;2024-02-21T03:55:29;101107.34;;;24.74
15544;BMP180;7873;52.230;12.856;2024-02-21T03:57:55;101101.94;;;24.74
15544;BMP180;7873;52.230;12.856;2024-02-21T04:00:23;101095.91;;;24.72
15544;BMP180;7873;52.230;12.856;2024-02-21T04:02:49;101104.16;;;24.71
15544;BMP180;7873;52.230;12.856;2024-02-21T04:05:16;101095.41;;;24.69
15544;BMP180;7873;52.230;12.856;2024-02-21T04:07:44;101093.06;;;24.66
15544;BMP180;7873;52.230;12.856;2024-02-21T04:10:10;101089.53;;;24.65
15544;BMP180;7873;52.230;12.856;2024-02-21T04:12:37;101085.16;;;24.64
15544;BMP180;7873;52.230;12.856;2024-02-21T04:15:04;101081.66;;;24.64
15544;BMP180;7873;52.230;12.856;2024-02-21T04:17:31;101073.06;;;24.60
15544;BMP180;7873;52.230;12.856;2024-02-21T04:20:02;101071.41;;;24.59
15544;BMP180;7873;52.230;12.856;2024-02-21T04:22:30;101060.81;;;24.58
15544;BMP180;7873;52.230;12.856;2024-02-21T04:24:59;101060.13;;;24.56
15544;BMP180;7873;52.230;12.856;2024-02-21T04:27:25;101037.94;;;24.54
15544;BMP180;7873;52.230;12.856;2024-02-21T04:29:52;101030.72;;;24.54
15544;BMP180;7873;52.230;12.856;2024-02-21T04:32:19;101013.72;;;24.54
15544;BMP180;7873;52.230;12.856;2024-02-21T04:34:45;101017.63;;;24.51
15544;BMP180;7873;52.230;12.856;2024-02-21T04:37:12;101011.38;;;24.51
15544;BMP180;7873;52.230;12.856;2024-02-21T04:39:38;101007.84;;;24.50
15544;BMP180;7873;52.230;12.856;2024-02-21T04:42:06;101001.59;;;24.50
15544;BMP180;7873;52.230;12.856;2024-02-21T04:44:33;101006.97;;;24.50
15544;BMP180;7873;52.230;12.856;2024-02-21T04:46:59;101003.47;;;24.49
15544;BMP180;7873;52.230;12.856;2024-02-21T04:49:26;100992.22;;;24.46
15544;BMP180;7873;52.230;12.856;2024-02-21T04:51:53;100984.97;;;24.46
15544;BMP180;7873;52.230;12.856;2024-02-21T04:54:19;100999.44;;;24.45
15544;BMP180;7873;52.230;12.856;2024-02-21T04:56:45;101001.59;;;24.50
15544;BMP180;7873;52.230;12.856;2024-02-21T04:59:13;101001.09;;;24.54
15544;BMP180;7873;52.230;12.856;2024-02-21T05:01:40;100999.72;;;24.58
15544;BMP180;7873;52.230;12.856;2024-02-21T05:04:06;101000.38;;;24.60
15544;BMP180;7873;52.230;12.856;2024-02-21T05:06:37;101002.53;;;24.65
15544;BMP180;7873;52.230;12.856;2024-02-21T05:09:03;100993.22;;;24.67
15544;BMP180;7873;52.230;12.856;2024-02-21T05:11:30;100993.06;;;24.69
15544;BMP180;7873;52.230;12.856;2024-02-21T05:13:56;101000.13;;;24.70
15544;BMP180;7873;52.230;12.856;2024-02-21T05:16:24;101009.03;;;24.70
15544;BMP180;7873;52.230;12.856;2024-02-21T05:18:51;101009.88;;;24.71
15544;BMP180;7873;52.230;12.856;2024-02-21T05:21:17;101003.63;;;24.70
15544;BMP180;7873;52.230;12.856;2024-02-21T05:23:44;101008.00;;;24.71
15544;BMP180;7873;52.230;12.856;2024-02-21T05:26:11;101005.50;;;24.70
15544;BMP180;7873;52.230;12.856;2024-02-21T05:28:37;101015.75;;;24.74
15544;BMP180;7873;52.230;12.856;2024-02-21T05:31:03;101017.44;;;24.75
15544;BMP180;7873;52.230;12.856;2024-02-21T05:33:31;101013.09;;;24.66
15544;BMP180;7873;52.230;12.856;2024-02-21T05:35:58;101016.28;;;24.70
15544;BMP180;7873;52.230;12.856;2024-02-21T05:38:24;101012.41;;;24.72
15544;BMP180;7873;52.230;12.856;2024-02-21T05:40:51;101009.50;;;24.74
15544;BMP180;7873;52.230;12.856;2024-02-21T05:43:17;101005.44;;;24.78
15544;BMP180;7873;52.230;12.856;2024-02-21T05:45:44;101005.25;;;24.79
15544;BMP180;7873;52.230;12.856;2024-02-21T05:48:10;100994.00;;;24.76
15544;BMP180;7873;52.230;12.856;2024-02-21T05:50:38;100994.28;;;24.81
15544;BMP180;7873;52.230;12.856;2024-02-21T05:53:05;101000.00;;;24.86
15544;BMP180;7873;52.230;12.856;2024-02-21T05:55:31;101000.66;;;24.88
15544;BMP180;7873;52.230;12.856;2024-02-21T05:57:58;101000.44;;;24.89
15544;BMP180;7873;52.230;12.856;2024-02-21T06:00:24;100997.75;;;24.89
15544;BMP180;7873;52.230;12.856;2024-02-21T06:02:51;101007.50;;;24.90
15544;BMP180;7873;52.230;12.856;2024-02-21T06:05:17;101022.00;;;24.89
15544;BMP180;7873;52.230;12.856;2024-02-21T06:07:45;101012.59;;;24.85
15544;BMP180;7873;52.230;12.856;2024-02-21T06:10:12;101010.06;;;24.69
15544;BMP180;7873;52.230;12.856;2024-02-21T06:12:38;101010.03;;;24.47
15544;BMP180;7873;52.230;12.856;2024-02-21T06:15:06;101009.97;;;24.32
15544;BMP180;7873;52.230;12.856;2024-02-21T06:17:32;101003.31;;;24.20
15544;BMP180;7873;52.230;12.856;2024-02-21T06:19:59;101007.25;;;24.10
15544;BMP180;7873;52.230;12.856;2024-02-21T06:22:25;100998.59;;;24.00
15544;BMP180;7873;52.230;12.856;2024-02-21T06:24:53;100992.25;;;23.93
15544;BMP180;7873;52.230;12.856;2024-02-21T06:27:20;100990.78;;;23.83
15544;BMP180;7873;52.230;12.856;2024-02-21T06:29:46;101001.53;;;23.74
15544;BMP180;7873;52.230;12.856;2024-02-21T06:32:13;100995.34;;;23.66
15544;BMP180;7873;52.230;12.856;2024-02-21T06:34:39;100993.66;;;23.65
15544;BMP180;7873;52.230;12.856;2024-02-21T06:37:06;100999.75;;;23.67
15544;BMP180;7873;52.230;12.856;2024-02-21T06:39:32;100993.16;;;23.70
15544;BMP180;7873;52.230;12.856;2024-02-21T06:42:00;101005.41;;;23.72
15544;BMP180;7873;52.230;12.856;2024-02-21T06:44:26;101017.50;;;23.76
15544;BMP180;7873;52.230;12.856;2024-02-21T06:46:53;101017.69;;;23.83
15544;BMP180;7873;52.230;12.856;2024-02-21T06:49:20;101007.41;;;23.78
15544;BMP180;7873;52.230;12.856;2024-02-21T06:51:46;101007.09;;;23.73
15544;BMP180;7873;52.230;12.856;2024-02-21T06:54:13;100998.69;;;23.76
15544;BMP180;7873;52.230;12.856;2024-02-21T06:56:40;100996.81;;;23.76
15544;BMP180;7873;52.230;12.856;2024-02-21T06:59:08;100993.00;;;24.01
15544;BMP180;7873;52.230;12.856;2024-02-21T07:01:34;100985.75;;;24.32
15544;BMP180;7873;52.230;12.856;2024-02-21T07:04:01;100981.03;;;24.57
15544;BMP180;7873;52.230;12.856;2024-02-21T07:06:27;100977.31;;;24.80
15544;BMP180;7873;52.230;12.856;2024-02-21T07:08:54;100975.13;;;24.98
15544;BMP180;7873;52.230;12.856;2024-02-21T07:11:20;100979.88;;;25.11
15544;BMP180;7873;52.230;12.856;2024-02-21T07:13:47;100980.44;;;25.21
15544;BMP180;7873;52.230;12.856;2024-02-21T07:16:14;100988.09;;;25.32
15544;BMP180;7873;52.230;12.856;2024-02-21T07:18:41;100986.97;;;25.41
15544;BMP180;7873;52.230;12.856;2024-02-21T07:21:08;100989.19;;;25.52
15544;BMP180;7873;52.230;12.856;2024-02-21T07:23:34;100983.94;;;25.79
15544;BMP180;7873;52.230;12.856;2024-02-21T07:26:01;100981.50;;;25.98
15544;BMP180;7873;52.230;12.856;2024-02-21T07:28:27;100982.78;;;26.17
15544;BMP180;7873;52.230;12.856;2024-02-21T07:30:53;100983.81;;;26.37
15544;BMP180;7873;52.230;12.856;2024-02-21T07:33:21;100979.84;;;26.54
15544;BMP180;7873;52.230;12.856;2024-02-21T07:35:48;100974.63;;;26.73
15544;BMP180;7873;52.230;12.856;2024-02-21T07:38:14;100980.56;;;26.90
15544;BMP180;7873;52.230;12.856;2024-02-21T07:40:44;100981.75;;;27.08
15544;BMP180;7873;52.230;12.856;2024-02-21T07:43:10;100977.72;;;27.25
15544;BMP180;7873;52.230;12.856;2024-02-21T07:45:37;100983.00;;;27.39
15544;BMP180;7873;52.230;12.856;2024-02-21T07:48:05;100972.28;;;27.52
15544;BMP180;7873;52.230;12.856;2024-02-21T07:50:33;100971.28;;;27.66
15544;BMP180;7873;52.230;12.856;2024-02-21T07:52:59;100976.34;;;27.76
15544;BMP180;7873;52.230;12.856;2024-02-21T07:55:26;100963.91;;;27.88
15544;BMP180;7873;52.230;12.856;2024-02-21T07:57:52;100966.03;;;27.99
15544;BMP180;7873;52.230;12.856;2024-02-21T08:00:19;100968.16;;;28.10
15544;BMP180;7873;52.230;12.856;2024-02-21T08:02:48;100972.34;;;28.19
15544;BMP180;7873;52.230;12.856;2024-02-21T08:05:14;100967.56;;;28.27
15544;BMP180;7873;52.230;12.856;2024-02-21T08:07:42;100963.00;;;28.34
15544;BMP180;7873;52.230;12.856;2024-02-21T08:10:08;100958.03;;;28.44
15544;BMP180;7873;52.230;12.856;2024-02-21T08:12:35;100963.25;;;28.52
15544;BMP180;7873;52.230;12.856;2024-02-21T08:15:02;100953.47;;;28.58
15544;BMP180;7873;52.230;12.856;2024-02-21T08:17:29;100954.47;;;28.63
15544;BMP180;7873;52.230;12.856;2024-02-21T08:19:56;100956.16;;;28.71
15544;BMP180;7873;52.230;12.856;2024-02-21T08:22:22;100947.41;;;28.75
15544;BMP180;7873;52.230;12.856;2024-02-21T08:24:50;100940.31;;;28.81
15544;BMP180;7873;52.230;12.856;2024-02-21T08:27:17;100940.53;;;28.86
15544;BMP180;7873;52.230;12.856;2024-02-21T08:29:43;100936.56;;;28.88
15544;BMP180;7873;52.230;12.856;2024-02-21T08:32:09;100939.69;;;28.92
15544;BMP180;7873;52.230;12.856;2024-02-21T08:34:36;100947.22;;;28.96
15544;BMP180;7873;52.230;12.856;2024-02-21T08:37:03;100944.28;;;28.98
15544;BMP180;7873;52.230;12.856;2024-02-21T08:39:29;100958.25;;;29.01
15544;BMP180;7873;52.230;12.856;2024-02-21T08:41:57;100950.53;;;29.05
15544;BMP180;7873;52.230;12.856;2024-02-21T08:44:24;100956.78;;;29.05
15544;BMP180;7873;52.230;12.856;2024-02-21T08:46:51;100956.59;;;29.07
15544;BMP180;7873;52.230;12.856;2024-02-21T08:49:17;100965.53;;;29.07
15544;BMP180;7873;52.230;12.856;2024-02-21T08:51:44;100957.41;;;29.07
15544;BMP180;7873;52.230;12.856;2024-02-21T08:54:12;100957.22;;;29.02
15544;BMP180;7873;52.230;12.856;2024-02-21T08:56:38;100955.53;;;29.01
15544;BMP180;7873;52.230;12.856;2024-02-21T08:59:06;100948.88;;;28.97
15544;BMP180;7873;52.230;12.856;2024-02-21T09:01:31;100947.63;;;28.93
15544;BMP180;7873;52.230;12.856;2024-02-21T09:03:59;100955.16;;;28.91
15544;BMP180;7873;52.230;12.856;2024-02-21T09:06:26;100951.97;;;28.88
15544;BMP180;7873;52.230;12.856;2024-02-21T09:08:56;100952.22;;;28.80
15544;BMP180;7873;52.230;12.856;2024-02-21T09:11:22;100945.09;;;28.59
15544;BMP180;7873;52.230;12.856;2024-02-21T09:13:49;100946.16;;;28.39
15544;BMP180;7873;52.230;12.856;2024-02-21T09:16:16;100947.13;;;28.25
15544;BMP180;7873;52.230;12.856;2024-02-21T09:18:43;100950.00;;;28.04
15544;BMP180;7873;52.230;12.856;2024-02-21T09:21:09;100948.97;;;27.98
15544;BMP180;7873;52.230;12.856;2024-02-21T09:23:36;100936.88;;;28.01
15544;BMP180;7873;52.230;12.856;2024-02-21T09:26:03;100927.94;;;28.07
15544;BMP180;7873;52.230;12.856;2024-02-21T09:28:29;100932.31;;;28.14
15544;BMP180;7873;52.230;12.856;2024-02-21T09:30:56;100929.63;;;28.27
15544;BMP180;7873;52.230;12.856;2024-02-21T09:33:24;100934.28;;;28.40
15544;BMP180;7873;52.230;12.856;2024-02-21T09:35:50;100933.22;;;28.54
15544;BMP180;7873;52.230;12.856;2024-02-21T09:38:17;100933.41;;;28.65
15544;BMP180;7873;52.230;12.856;2024-02-21T09:40:44;100930.72;;;28.78
15544;BMP180;7873;52.230;12.856;2024-02-21T09:43:10;100927.59;;;28.75
15544;BMP180;7873;52.230;12.856;2024-02-21T09:45:38;100938.44;;;28.68
15544;BMP180;7873;52.230;12.856;2024-02-21T09:48:29;100936.34;;;28.57
15544;BMP180;7873;52.230;12.856;2024-02-21T09:50:57;100939.25;;;28.62
15544;BMP180;7873;52.230;12.856;2024-02-21T09:53:25;100938.22;;;28.63
15544;BMP180;7873;52.230;12.856;2024-02-21T09:55:52;100941.78;;;28.64
15544;BMP180;7873;52.230;12.856;2024-02-21T09:58:19;100933.84;;;28.62
15544;BMP180;7873;52.230;12.856;2024-02-21T10:00:46;100933.66;;;28.64
15544;BMP180;7873;52.230;12.856;2024-02-21T10:03:14;100929.69;;;28.66
15544;BMP180;7873;52.230;12.856;2024-02-21T10:05:47;100926.13;;;28.66
15544;BMP180;7873;52.230;12.856;2024-02-21T10:08:15;100938.03;;;28.65
15544;BMP180;7873;52.230;12.856;2024-02-21T10:10:42;100928.44;;;28.62
15544;BMP180;7873;52.230;12.856;2024-02-21T10:13:10;100929.47;;;28.61
15544;BMP180;7873;52.230;12.856;2024-02-21T10:15:37;100938.88;;;28.59
15544;BMP180;7873;52.230;12.856;2024-02-21T10:18:04;100937.41;;;28.56
15544;BMP180;7873;52.230;12.856;2024-02-21T10:20:32;100935.72;;;28.55
15544;BMP180;7873;52.230;12.856;2024-02-21T10:23:03;100930.50;;;28.54
15544;BMP180;7873;52.230;12.856;2024-02-21T10:25:33;100930.31;;;28.49
15544;BMP180;7873;52.230;12.856;2024-02-21T10:28:01;100931.75;;;28.45
15544;BMP180;7873;52.230;12.856;2024-02-21T10:30:28;100935.72;;;28.42
15544;BMP180;7873;52.230;12.856;2024-02-21T10:32:56;100930.72;;;28.39
15544;BMP180;7873;52.230;12.856;2024-02-21T10:35:26;100923.22;;;28.35
15544;BMP180;7873;52.230;12.856;2024-02-21T10:37:53;100925.31;;;28.33
15544;BMP180;7873;52.230;12.856;2024-02-21T10:40:23;100914.00;;;28.29
15544;BMP180;7873;52.230;12.856;2024-02-21T10:42:56;100909.84;;;28.27
15544;BMP180;7873;52.230;12.856;2024-02-21T10:45:28;100899.00;;;28.27
15544;BMP180;7873;52.230;12.856;2024-02-21T10:47:56;100904.84;;;28.24
15544;BMP180;7873;52.230;12.856;2024-02-21T10:50:28;100904.22;;;28.22
15544;BMP180;7873;52.230;12.856;2024-02-21T10:52:59;100910.25;;;28.17
15544;BMP180;7873;52.230;12.856;2024-02-21T10:55:38;100899.00;;;28.14
15544;BMP180;7873;52.230;12.856;2024-02-21T10:58:07;100895.44;;;28.13
15544;BMP180;7873;52.230;12.856;2024-02-21T11:00:34;100889.22;;;28.13
15544;BMP180;7873;52.230;12.856;2024-02-21T11:03:01;100885.88;;;28.11
15544;BMP180;7873;52.230;12.856;2024-02-21T11:05:29;100886.50;;;28.13
15544;BMP180;7873;52.230;12.856;2024-02-21T11:07:56;100879.00;;;28.08
15544;BMP180;7873;52.230;12.856;2024-02-21T11:10:24;100875.44;;;28.14
15544;BMP180;7873;52.230;12.856;2024-02-21T11:12:53;100873.59;;;28.21
15544;BMP180;7873;52.230;12.856;2024-02-21T11:15:25;100866.09;;;28.23
15544;BMP180;7873;52.230;12.856;2024-02-21T11:17:55;100858.84;;;28.30
15544;BMP180;7873;52.230;12.856;2024-02-21T11:20:32;100851.94;;;28.34
15544;BMP180;7873;52.230;12.856;2024-02-21T11:22:58;100845.91;;;28.39
15544;BMP180;7873;52.230;12.856;2024-02-21T11:25:25;100837.38;;;28.42
15544;BMP180;7873;52.230;12.856;2024-02-21T11:28:00;100833.81;;;28.48
15544;BMP180;7873;52.230;12.856;2024-02-21T11:30:27;100822.97;;;28.54
15544;BMP180;7873;52.230;12.856;2024-02-21T11:32:59;100830.06;;;28.62
15544;BMP180;7873;52.230;12.856;2024-02-21T11:35:30;100816.31;;;28.24
15544;BMP180;7873;52.230;12.856;2024-02-21T11:38:07;100811.72;;;27.79
15544;BMP180;7873;52.230;12.856;2024-02-21T11:40:34;100804.41;;;27.86
15544;BMP180;7873;52.230;12.856;2024-02-21T11:43:02;100805.69;;;28.03
15544;BMP180;7873;52.230;12.856;2024-02-21T11:45:28;100799.81;;;28.19
15544;BMP180;7873;52.230;12.856;2024-02-21T11:47:57;100793.19;;;28.28
15544;BMP180;7873;52.230;12.856;2024-02-21T11:50:25;100795.03;;;28.28
15544;BMP180;7873;52.230;12.856;2024-02-21T11:52:54;100790.28;;;28.36
15544;BMP180;7873;52.230;12.856;2024-02-21T11:55:21;100774.44;;;28.40
15544;BMP180;7873;52.230;12.856;2024-02-21T11:57:48;100772.13;;;28.50
15544;BMP180;7873;52.230;12.856;2024-02-21T12:00:18;100769.41;;;28.56
15544;BMP180;7873;52.230;12.856;2024-02-21T12:02:46;100763.56;;;28.53
15544;BMP180;7873;52.230;12.856;2024-02-21T12:05:13;100771.94;;;28.45
15544;BMP180;7873;52.230;12.856;2024-02-21T12:07:40;100763.81;;;28.25
15544;BMP180;7873;52.230;12.856;2024-02-21T12:10:08;100767.78;;;27.90
15544;BMP180;7873;52.230;12.856;2024-02-21T12:12:35;100750.50;;;27.85
15544;BMP180;7873;52.230;12.856;2024-02-21T12:15:03;100758.19;;;28.07
15544;BMP180;7873;52.230;12.856;2024-02-21T12:17:32;100745.06;;;28.30
15544;BMP180;7873;52.230;12.856;2024-02-21T12:19:59;100754.00;;;28.57
15544;BMP180;7873;52.230;12.856;2024-02-21T12:22:25;100741.81;;;28.79
15544;BMP180;7873;52.230;12.856;2024-02-21T12:24:52;100732.56;;;28.99
15544;BMP180;7873;52.230;12.856;2024-02-21T12:27:19;100733.06;;;29.20
15544;BMP180;7873;52.230;12.856;2024-02-21T12:29:45;100731.31;;;29.39
15544;BMP180;7873;52.230;12.856;2024-02-21T12:32:12;100729.97;;;29.54
15544;BMP180;7873;52.230;12.856;2024-02-21T12:34:39;100725.69;;;29.71
15544;BMP180;7873;52.230;12.856;2024-02-21T12:37:06;100729.94;;;29.85
15544;BMP180;7873;52.230;12.856;2024-02-21T12:39:32;100726.47;;;30.03
15544;BMP180;7873;52.230;12.856;2024-02-21T12:41:59;100713.38;;;30.18
15544;BMP180;7873;52.230;12.856;2024-02-21T12:44:26;100699.88;;;30.29
15544;BMP180;7873;52.230;12.856;2024-02-21T12:46:53;100698.91;;;30.42
15544;BMP180;7873;52.230;12.856;2024-02-21T12:49:19;100699.44;;;30.50
15544;BMP180;7873;52.230;12.856;2024-02-21T12:51:47;100699.13;;;30.58
15544;BMP180;7873;52.230;12.856;2024-02-21T12:54:14;100691.16;;;30.63
15544;BMP180;7873;52.230;12.856;2024-02-21T12:56:40;100681.03;;;30.70
15544;BMP180;7873;52.230;12.856;2024-02-21T12:59:07;100679.88;;;30.78
15544;BMP180;7873;52.230;12.856;2024-02-21T13:01:34;100684.59;;;30.82
15544;BMP180;7873;52.230;12.856;2024-02-21T13:04:01;100682.72;;;30.83
15544;BMP180;7873;52.230;12.856;2024-02-21T13:06:28;100674.59;;;30.83
15544;BMP180;7873;52.230;12.856;2024-02-21T13:08:56;100669.59;;;30.80
15544;BMP180;7873;52.230;12.856;2024-02-21T13:11:23;100662.84;;;30.82
15544;BMP180;7873;52.230;12.856;2024-02-21T13:13:52;100668.09;;;30.84
15544;BMP180;7873;52.230;12.856;2024-02-21T13:16:19;100661.19;;;30.81
15544;BMP180;7873;52.230;12.856;2024-02-21T13:18:46;100653.75;;;30.77
15544;BMP180;7873;52.230;12.856;2024-02-21T13:21:13;100649.00;;;30.72
15544;BMP180;7873;52.230;12.856;2024-02-21T13:23:40;100655.34;;;30.66
15544;BMP180;7873;52.230;12.856;2024-02-21T13:26:10;100656.50;;;30.59
15544;BMP180;7873;52.230;12.856;2024-02-21T13:28:37;100648.78;;;30.56
15544;BMP180;7873;52.230;12.856;2024-02-21T13:31:04;100641.50;;;30.50
15544;BMP180;7873;52.230;12.856;2024-02-21T13:33:31;100638.19;;;30.48
15544;BMP180;7873;52.230;12.856;2024-02-21T13:35:57;100648.69;;;30.44
15544;BMP180;7873;52.230;12.856;2024-02-21T13:38:24;100648.78;;;30.38
15544;BMP180;7873;52.230;12.856;2024-02-21T13:40:50;100636.09;;;30.32
15544;BMP180;7873;52.230;12.856;2024-02-21T13:43:18;100632.63;;;30.25
15544;BMP180;7873;52.230;12.856;2024-02-21T13:45:55;100633.91;;;30.22
15544;BMP180;7873;52.230;12.856;2024-02-21T13:48:22;100637.31;;;30.18
15544;BMP180;7873;52.230;12.856;2024-02-21T13:50:49;100637.97;;;30.13
15544;BMP180;7873;52.230;12.856;2024-02-21T13:53:16;100631.13;;;30.11
15544;BMP180;7873;52.230;12.856;2024-02-21T13:55:43;100636.41;;;30.06